createdAt,value
2023-01-19T00:03:30.452Z,1.55
2023-01-19T00:08:34.684Z,1.56
2023-01-19T00:13:37.492Z,1.54
2023-01-19T00:18:40.117Z,1.51
2023-01-19T00:23:47.145Z,1.52
2023-01-19T00:28:50.344Z,1.53
2023-01-19T00:33:53.190Z,1.54
2023-01-19T00:38:55.869Z,1.51
2023-01-19T00:43:58.460Z,1.45
2023-01-19T00:49:01.162Z,1.38
2023-01-19T00:54:04.845Z,1.38
2023-01-19T00:59:07.513Z,1.38
2023-01-19T01:04:12.090Z,1.34
2023-01-19T01:09:14.951Z,1.33
2023-01-19T01:14:18.270Z,1.34
2023-01-19T01:19:21.333Z,1.33
2023-01-19T01:24:23.905Z,1.32
2023-01-19T01:29:26.575Z,1.29
2023-01-19T01:34:29.158Z,1.25
2023-01-19T01:39:31.715Z,1.21
2023-01-19T01:44:57.493Z,1.17
2023-01-19T01:50:13.069Z,1.14
2023-01-19T01:55:18.591Z,1.10
2023-01-19T02:00:21.618Z,1.12
2023-01-19T02:05:28.231Z,1.18
2023-01-19T02:10:50.272Z,1.22
2023-01-19T02:15:59.416Z,1.23
2023-01-19T02:21:26.370Z,1.23
2023-01-19T02:26:38.317Z,1.18
2023-01-19T02:31:41.428Z,1.15
2023-01-19T02:37:07.576Z,1.14
2023-01-19T02:42:18.836Z,1.11
2023-01-19T02:47:21.809Z,1.11
2023-01-19T02:52:26.205Z,1.15
2023-01-19T02:57:50.194Z,1.19
2023-01-19T03:02:59.263Z,1.21
2023-01-19T03:08:39.643Z,1.20
2023-01-19T03:13:57.895Z,1.16
2023-01-19T03:19:13.166Z,1.11
2023-01-19T03:24:19.313Z,1.08
2023-01-19T03:29:24.557Z,1.06
2023-01-19T03:34:28.915Z,1.05
2023-01-19T03:39:32.001Z,1.03
2023-01-19T03:44:38.411Z,1.04
2023-01-19T03:49:44.311Z,1.05
2023-01-19T03:54:46.899Z,1.05
2023-01-19T03:59:49.624Z,1.08
2023-01-19T04:04:52.225Z,1.10
2023-01-19T04:09:54.772Z,1.07
2023-01-19T04:14:57.322Z,1.01
2023-01-19T04:20:00.447Z,0.94
2023-01-19T04:25:03.298Z,0.83
2023-01-19T04:30:06.919Z,0.75
2023-01-19T04:35:09.700Z,0.76
2023-01-19T04:40:12.697Z,0.82
2023-01-19T04:45:15.423Z,0.94
2023-01-19T04:50:18.596Z,1.00
2023-01-19T04:55:21.443Z,1.05
2023-01-19T05:00:24.137Z,1.06
2023-01-19T05:05:27.375Z,1.04
2023-01-19T05:10:30.003Z,1.01
2023-01-19T05:15:32.603Z,0.96
2023-01-19T05:20:35.207Z,0.91
2023-01-19T05:25:37.814Z,0.88
2023-01-19T05:30:40.412Z,0.84
2023-01-19T05:35:43.132Z,0.83
2023-01-19T05:40:45.726Z,0.83
2023-01-19T05:45:48.264Z,0.78
2023-01-19T05:50:51.053Z,0.73
2023-01-19T05:55:59.179Z,0.74
2023-01-19T06:01:05.398Z,0.75
2023-01-19T06:06:08.172Z,0.73
2023-01-19T06:11:11.661Z,0.70
2023-01-19T06:16:14.552Z,0.62
2023-01-19T06:21:17.426Z,0.58
2023-01-19T06:26:20.068Z,0.60
2023-01-19T06:31:22.851Z,0.60
2023-01-19T06:36:25.660Z,0.58
2023-01-19T06:41:28.290Z,0.54
2023-01-19T06:46:31.358Z,0.43
2023-01-19T06:51:34.196Z,0.32
2023-01-19T06:56:37.040Z,0.31
2023-01-19T07:01:40.641Z,0.32
2023-01-19T07:06:43.473Z,0.37
2023-01-19T07:11:47.021Z,0.41
2023-01-19T07:16:49.706Z,0.48
2023-01-19T07:21:52.407Z,0.52
2023-01-19T07:26:54.978Z,0.52
2023-01-19T07:31:57.822Z,0.52
2023-01-19T07:37:00.710Z,0.58
2023-01-19T07:42:03.498Z,0.68
2023-01-19T07:47:07.696Z,0.79
2023-01-19T07:52:10.790Z,0.84
2023-01-19T07:57:13.780Z,0.79
2023-01-19T08:02:17.444Z,0.74
2023-01-19T08:07:20.375Z,0.74
2023-01-19T08:12:22.963Z,0.80
2023-01-19T08:17:25.604Z,0.86
2023-01-19T08:22:28.514Z,0.91
2023-01-19T08:27:31.226Z,0.99
2023-01-19T08:32:33.961Z,1.05
2023-01-19T08:37:36.733Z,1.09
2023-01-19T08:42:39.763Z,1.15
2023-01-19T08:47:42.866Z,1.23
2023-01-19T08:52:45.702Z,1.29
2023-01-19T08:57:52.611Z,1.38
2023-01-19T09:02:56.541Z,1.47
2023-01-19T09:07:59.322Z,1.53
2023-01-19T09:13:06.954Z,1.63
2023-01-19T09:18:21.515Z,1.76
2023-01-19T09:23:25.481Z,1.87
2023-01-19T09:28:29.332Z,1.99
2023-01-19T09:33:32.105Z,2.08
2023-01-19T09:38:34.669Z,2.15
2023-01-19T09:43:47.991Z,2.19
2023-01-19T09:48:50.599Z,2.28
2023-01-19T09:54:04.996Z,2.29
2023-01-19T09:59:29.157Z,2.22
2023-01-19T10:04:43.567Z,2.26
2023-01-19T10:10:05.759Z,2.36
2023-01-19T10:15:53.525Z,2.46
2023-01-19T10:21:06.438Z,2.54
2023-01-19T10:26:36.286Z,2.56
2023-01-19T10:31:42.588Z,2.53
2023-01-19T10:36:48.118Z,2.41
2023-01-19T10:41:53.438Z,2.33
2023-01-19T10:46:58.959Z,2.34
2023-01-19T10:52:03.304Z,2.35
2023-01-19T10:57:10.157Z,2.38
2023-01-19T11:02:20.628Z,2.51
2023-01-19T11:07:26.950Z,2.67
2023-01-19T11:12:30.669Z,2.78
2023-01-19T11:17:33.662Z,2.80
2023-01-19T11:22:36.884Z,2.77
2023-01-19T11:27:50.342Z,2.76
2023-01-19T11:32:54.355Z,2.76
2023-01-19T11:38:27.239Z,2.76
2023-01-19T11:43:43.536Z,2.75
2023-01-19T11:49:02.094Z,2.78
2023-01-19T11:54:19.966Z,2.77
2023-01-19T11:59:25.014Z,2.77
2023-01-19T12:04:39.301Z,2.75
2023-01-19T12:09:47.389Z,2.68
2023-01-19T12:15:11.920Z,2.69
2023-01-19T12:20:52.131Z,2.77
2023-01-19T12:26:03.547Z,2.85
2023-01-19T12:31:06.332Z,2.90
2023-01-19T12:36:27.642Z,2.87
2023-01-19T12:41:31.771Z,2.87
2023-01-19T12:46:34.939Z,2.89
2023-01-19T12:51:38.159Z,2.90
2023-01-19T12:56:42.893Z,2.90
2023-01-19T13:02:24.074Z,2.91
2023-01-19T13:07:26.566Z,2.92
2023-01-19T13:12:29.357Z,2.87
2023-01-19T13:17:54.056Z,2.82
2023-01-19T13:23:24.622Z,2.80
2023-01-19T13:28:41.518Z,2.80
2023-01-19T13:34:04.123Z,2.83
2023-01-19T13:39:16.579Z,2.80
2023-01-19T13:44:23.715Z,2.72
2023-01-19T13:49:32.742Z,2.59
2023-01-19T13:54:35.632Z,2.49
2023-01-19T13:59:38.177Z,2.40
2023-01-19T14:04:40.745Z,2.34
2023-01-19T14:09:43.451Z,2.35
2023-01-19T14:14:48.137Z,2.35
2023-01-19T14:19:53.316Z,2.33
2023-01-19T14:24:56.009Z,2.27
2023-01-19T14:30:20.451Z,2.23
2023-01-19T14:35:25.042Z,2.20
2023-01-19T14:40:27.896Z,2.19
2023-01-19T14:45:36.116Z,2.17
2023-01-19T14:50:42.846Z,2.10
2023-01-19T14:55:55.910Z,2.01
2023-01-19T15:00:58.658Z,1.96
2023-01-19T15:06:04.186Z,1.95
2023-01-19T15:11:11.828Z,1.95
2023-01-19T15:16:14.770Z,1.98
2023-01-19T15:21:20.000Z,1.97
2023-01-19T15:26:24.911Z,1.96
2023-01-19T15:31:27.672Z,1.99
2023-01-19T15:36:30.495Z,1.96
2023-01-19T15:41:33.623Z,1.93
2023-01-19T15:46:36.901Z,1.97
2023-01-19T15:51:39.556Z,1.99
2023-01-19T15:56:42.708Z,2.02
2023-01-19T16:01:45.574Z,2.03
2023-01-19T16:06:50.096Z,2.01
2023-01-19T16:11:56.898Z,2.00
2023-01-19T16:17:00.894Z,2.00
2023-01-19T16:22:05.612Z,2.02
2023-01-19T16:27:08.850Z,2.08
2023-01-19T16:32:12.465Z,2.11
2023-01-19T16:37:15.126Z,2.06
2023-01-19T16:42:21.127Z,1.96
2023-01-19T16:47:23.974Z,1.87
2023-01-19T16:52:26.618Z,1.82
2023-01-19T16:57:29.505Z,1.76
2023-01-19T17:02:32.126Z,1.74
2023-01-19T17:07:35.048Z,1.73
2023-01-19T17:19:21.874Z,1.74
2023-01-19T17:24:25.018Z,1.70
2023-01-19T17:29:28.236Z,1.69
2023-01-19T17:34:31.011Z,1.66
2023-01-19T17:39:33.759Z,1.65
2023-01-19T17:44:36.349Z,1.61
2023-01-19T17:49:39.361Z,1.54
2023-01-19T17:54:41.945Z,1.50
2023-01-19T17:59:44.582Z,1.46
2023-01-19T18:04:47.175Z,1.44
2023-01-19T18:09:51.715Z,1.46
2023-01-19T18:14:54.275Z,1.54
2023-01-19T18:19:57.298Z,1.58
2023-01-19T18:25:01.543Z,1.62
2023-01-19T18:30:04.953Z,1.66
2023-01-19T18:35:08.363Z,1.69
2023-01-19T18:40:12.758Z,1.72
2023-01-19T18:45:16.119Z,1.75
2023-01-19T18:50:19.072Z,1.74
2023-01-19T18:55:21.730Z,1.74
2023-01-19T19:00:24.392Z,1.74
2023-01-19T19:05:27.071Z,1.75
2023-01-19T19:10:30.113Z,1.81
2023-01-19T19:15:34.330Z,1.84
2023-01-19T19:20:40.175Z,1.84
2023-01-19T19:25:42.813Z,1.83
2023-01-19T19:30:46.465Z,1.82
2023-01-19T19:35:56.352Z,1.81
2023-01-19T19:41:04.123Z,1.76
2023-01-19T19:46:09.516Z,1.76
2023-01-19T19:51:19.387Z,1.82
2023-01-19T19:56:24.231Z,1.86
2023-01-19T20:01:32.501Z,1.86
2023-01-19T20:06:38.914Z,1.92
2023-01-19T20:11:43.965Z,1.97
2023-01-19T20:16:46.659Z,1.95
2023-01-19T20:21:50.017Z,1.89
2023-01-19T20:26:53.183Z,1.83
2023-01-19T20:31:59.996Z,1.76
2023-01-19T20:37:04.696Z,1.71
2023-01-19T20:42:13.683Z,1.68
2023-01-19T20:47:21.684Z,1.67
2023-01-19T20:52:26.414Z,1.60
2023-01-19T20:57:31.148Z,1.61
2023-01-19T21:02:33.818Z,1.61
2023-01-19T21:07:36.908Z,1.68
2023-01-19T21:12:39.668Z,1.75
2023-01-19T21:17:45.199Z,1.83
2023-01-19T21:22:48.243Z,1.86
2023-01-19T21:27:51.330Z,1.83
2023-01-19T21:32:55.139Z,1.78
2023-01-19T21:37:58.310Z,1.75
2023-01-19T21:43:01.088Z,1.75
2023-01-19T21:48:03.714Z,1.82
2023-01-19T21:53:11.290Z,1.91
2023-01-19T21:58:13.981Z,1.96
2023-01-19T22:03:16.829Z,1.98
2023-01-19T22:08:19.440Z,1.98
2023-01-19T22:13:22.032Z,1.98
2023-01-19T22:18:24.686Z,1.98
2023-01-19T22:23:27.386Z,1.99
2023-01-19T22:28:29.937Z,2.06
2023-01-19T22:33:36.013Z,2.09
2023-01-19T22:38:40.116Z,2.07
2023-01-19T22:43:43.582Z,2.10
2023-01-19T22:48:48.799Z,2.09
2023-01-19T22:53:51.877Z,2.07
2023-01-19T22:58:55.394Z,2.07
2023-01-19T23:03:58.032Z,1.98
2023-01-19T23:09:04.521Z,1.86
2023-01-19T23:14:11.557Z,1.75
2023-01-19T23:19:16.853Z,1.69
2023-01-19T23:24:20.829Z,1.68
2023-01-19T23:29:23.750Z,1.69
2023-01-19T23:34:26.751Z,1.70
2023-01-19T23:39:29.534Z,1.72
2023-01-19T23:44:32.102Z,1.70
2023-01-19T23:49:34.661Z,1.66
2023-01-19T23:54:37.317Z,1.67
2023-01-19T23:59:40.047Z,1.68
